TAM3774 SBBR-SBCT
Flight info
| Callsign | TAM3774 |
|---|---|
| Flight time | 1h 34m |
| Altitude | 36000 |
| Route | KUKOL UZ5 UMGUL |
| Aircraft | A320/M-SDE3FGHIRWY/LB1 |
Departure
| Time | 2026-05-08 15:16 |
|---|---|
| Airport | Presidente Juscelino Kubitschek International Airport (SBBR) |
Arrival
| Time | 2026-05-08 16:50 |
|---|---|
| Airport | Curitiba-Afonso Pena International Airport (SBCT) |
| Time | Latitude | Longitude | Altitude | Speed | Heading |
|---|---|---|---|---|---|
| 2026-05-08 14:55 | -15.87022 | -47.92004 | 3465 ft | 0 kts | 266° |
| 2026-05-08 15:02 | -15.87021 | -47.91997 | 3492 ft | 4 kts | 264° |
| 2026-05-08 15:03 | -15.87016 | -47.91970 | 3453 ft | 4 kts | 244° |
| 2026-05-08 15:03 | -15.87001 | -47.91948 | 3464 ft | 4 kts | 216° |
| 2026-05-08 15:03 | -15.86977 | -47.91936 | 3465 ft | 4 kts | 186° |
| 2026-05-08 15:03 | -15.86962 | -47.91936 | 3465 ft | 0 kts | 176° |
| 2026-05-08 15:06 | -15.86963 | -47.91936 | 3465 ft | 1 kts | 176° |
| 2026-05-08 15:06 | -15.86995 | -47.91933 | 3464 ft | 5 kts | 176° |
| 2026-05-08 15:06 | -15.87020 | -47.91928 | 3464 ft | 3 kts | 149° |
| 2026-05-08 15:06 | -15.87025 | -47.91899 | 3465 ft | 8 kts | 85° |
| 2026-05-08 15:07 | -15.87016 | -47.91837 | 3465 ft | 10 kts | 84° |
| 2026-05-08 15:07 | -15.87010 | -47.91762 | 3465 ft | 11 kts | 87° |
| 2026-05-08 15:07 | -15.87032 | -47.91689 | 3465 ft | 12 kts | 154° |
| 2026-05-08 15:07 | -15.87113 | -47.91682 | 3465 ft | 12 kts | 174° |
| 2026-05-08 15:08 | -15.87192 | -47.91677 | 3464 ft | 11 kts | 176° |
| 2026-05-08 15:08 | -15.87268 | -47.91672 | 3464 ft | 11 kts | 176° |
| 2026-05-08 15:08 | -15.87340 | -47.91668 | 3463 ft | 10 kts | 176° |
| 2026-05-08 15:08 | -15.87404 | -47.91664 | 3464 ft | 8 kts | 176° |
| 2026-05-08 15:09 | -15.87455 | -47.91660 | 3464 ft | 7 kts | 176° |
| 2026-05-08 15:09 | -15.87504 | -47.91657 | 3464 ft | 12 kts | 176° |
| 2026-05-08 15:09 | -15.87588 | -47.91651 | 3469 ft | 11 kts | 176° |
| 2026-05-08 15:09 | -15.87669 | -47.91646 | 3470 ft | 14 kts | 176° |
| 2026-05-08 15:10 | -15.87739 | -47.91695 | 3469 ft | 14 kts | 261° |
| 2026-05-08 15:10 | -15.87745 | -47.91819 | 3470 ft | 18 kts | 266° |
| 2026-05-08 15:10 | -15.87753 | -47.91945 | 3470 ft | 20 kts | 266° |
| 2026-05-08 15:10 | -15.87762 | -47.92085 | 3468 ft | 18 kts | 266° |
| 2026-05-08 15:11 | -15.87770 | -47.92208 | 3471 ft | 16 kts | 266° |
| 2026-05-08 15:11 | -15.87777 | -47.92316 | 3469 ft | 14 kts | 266° |
| 2026-05-08 15:11 | -15.87782 | -47.92413 | 3471 ft | 15 kts | 266° |
| 2026-05-08 15:11 | -15.87793 | -47.92567 | 3471 ft | 22 kts | 265° |
| 2026-05-08 15:12 | -15.87802 | -47.92721 | 3471 ft | 20 kts | 266° |
| 2026-05-08 15:12 | -15.87810 | -47.92859 | 3471 ft | 18 kts | 266° |
| 2026-05-08 15:12 | -15.87820 | -47.92980 | 3471 ft | 16 kts | 265° |
| 2026-05-08 15:12 | -15.87827 | -47.93108 | 3472 ft | 20 kts | 266° |
| 2026-05-08 15:13 | -15.87836 | -47.93244 | 3472 ft | 18 kts | 266° |
| 2026-05-08 15:13 | -15.87843 | -47.93364 | 3473 ft | 16 kts | 266° |
| 2026-05-08 15:13 | -15.87851 | -47.93469 | 3473 ft | 14 kts | 265° |
| 2026-05-08 15:13 | -15.87857 | -47.93560 | 3473 ft | 12 kts | 265° |
| 2026-05-08 15:14 | -15.87863 | -47.93666 | 3473 ft | 22 kts | 267° |
| 2026-05-08 15:14 | -15.87872 | -47.93821 | 3474 ft | 20 kts | 266° |
| 2026-05-08 15:14 | -15.87886 | -47.93957 | 3474 ft | 17 kts | 246° |
| 2026-05-08 15:14 | -15.87968 | -47.93995 | 3478 ft | 9 kts | 178° |
| 2026-05-08 15:15 | -15.88018 | -47.93992 | 3487 ft | 6 kts | 177° |
| 2026-05-08 15:15 | -15.88065 | -47.93972 | 3488 ft | 10 kts | 113° |
| 2026-05-08 15:15 | -15.88055 | -47.93796 | 3488 ft | 54 kts | 86° |
| 2026-05-08 15:15 | -15.88015 | -47.93163 | 3479 ft | 119 kts | 86° |
| 2026-05-08 15:16 | -15.87949 | -47.92125 | 3528 ft | 163 kts | 86° |
| 2026-05-08 15:16 | -15.87884 | -47.90972 | 4274 ft | 161 kts | 95° |
| 2026-05-08 15:16 | -15.88425 | -47.89973 | 4869 ft | 173 kts | 144° |
| 2026-05-08 15:16 | -15.89599 | -47.89452 | 5234 ft | 196 kts | 161° |
| 2026-05-08 15:17 | -15.90996 | -47.89081 | 5503 ft | 218 kts | 164° |
| 2026-05-08 15:17 | -15.92560 | -47.88695 | 5805 ft | 244 kts | 165° |
| 2026-05-08 15:17 | -15.94287 | -47.88252 | 6189 ft | 268 kts | 164° |
| 2026-05-08 15:17 | -15.96149 | -47.87745 | 6751 ft | 282 kts | 163° |
| 2026-05-08 15:18 | -15.98058 | -47.87196 | 7546 ft | 288 kts | 163° |
| 2026-05-08 15:18 | -16.00001 | -47.86611 | 8372 ft | 292 kts | 163° |
| 2026-05-08 15:18 | -16.01972 | -47.86003 | 8804 ft | 297 kts | 163° |
| 2026-05-08 15:18 | -16.04013 | -47.85727 | 8925 ft | 297 kts | 189° |
| 2026-05-08 15:19 | -16.05886 | -47.86529 | 8937 ft | 294 kts | 222° |
| 2026-05-08 15:19 | -16.07041 | -47.88256 | 9364 ft | 295 kts | 254° |
| 2026-05-08 15:19 | -16.07360 | -47.90316 | 10282 ft | 293 kts | 268° |
| 2026-05-08 15:19 | -16.07525 | -47.92505 | 10662 ft | 315 kts | 268° |
| 2026-05-08 15:20 | -16.07667 | -47.94852 | 11074 ft | 332 kts | 269° |
| 2026-05-08 15:20 | -16.07911 | -47.97271 | 11717 ft | 341 kts | 260° |
| 2026-05-08 15:20 | -16.08632 | -47.99640 | 12407 ft | 348 kts | 247° |
| 2026-05-08 15:20 | -16.09769 | -48.01898 | 13074 ft | 354 kts | 242° |
| 2026-05-08 15:21 | -16.10967 | -48.04164 | 13707 ft | 361 kts | 242° |
| 2026-05-08 15:21 | -16.12184 | -48.06463 | 14332 ft | 364 kts | 242° |
| 2026-05-08 15:21 | -16.13409 | -48.08781 | 14968 ft | 366 kts | 242° |
| 2026-05-08 15:21 | -16.14639 | -48.11112 | 15590 ft | 369 kts | 242° |
| 2026-05-08 15:22 | -16.15858 | -48.13427 | 16202 ft | 371 kts | 242° |
| 2026-05-08 15:22 | -16.17100 | -48.15791 | 16840 ft | 373 kts | 242° |
| 2026-05-08 15:22 | -16.18347 | -48.18168 | 17466 ft | 375 kts | 242° |
| 2026-05-08 15:22 | -16.19601 | -48.20558 | 18089 ft | 377 kts | 242° |
| 2026-05-08 15:23 | -16.20863 | -48.22965 | 18656 ft | 379 kts | 242° |
| 2026-05-08 15:23 | -16.22153 | -48.25379 | 19106 ft | 383 kts | 238° |
| 2026-05-08 15:23 | -16.23792 | -48.27575 | 19561 ft | 387 kts | 226° |
| 2026-05-08 15:23 | -16.25861 | -48.29379 | 20029 ft | 390 kts | 213° |
| 2026-05-08 15:24 | -16.28238 | -48.30691 | 20498 ft | 394 kts | 202° |
| 2026-05-08 15:24 | -16.30844 | -48.31617 | 20969 ft | 397 kts | 198° |
| 2026-05-08 15:24 | -16.33474 | -48.32521 | 21433 ft | 400 kts | 198° |
| 2026-05-08 15:24 | -16.36127 | -48.33441 | 21895 ft | 403 kts | 199° |
| 2026-05-08 15:25 | -16.38798 | -48.34371 | 22344 ft | 406 kts | 199° |
| 2026-05-08 15:25 | -16.41492 | -48.35308 | 22774 ft | 409 kts | 199° |
| 2026-05-08 15:25 | -16.44207 | -48.36253 | 23216 ft | 412 kts | 199° |
| 2026-05-08 15:25 | -16.46939 | -48.37201 | 23650 ft | 415 kts | 199° |
| 2026-05-08 15:26 | -16.49690 | -48.38151 | 24017 ft | 417 kts | 199° |
| 2026-05-08 15:26 | -16.52423 | -48.39094 | 24389 ft | 420 kts | 199° |
| 2026-05-08 15:26 | -16.55201 | -48.40053 | 24774 ft | 421 kts | 199° |
| 2026-05-08 15:26 | -16.57991 | -48.41016 | 25171 ft | 423 kts | 199° |
| 2026-05-08 15:27 | -16.60790 | -48.41986 | 25555 ft | 425 kts | 199° |
| 2026-05-08 15:27 | -16.63598 | -48.42963 | 25934 ft | 426 kts | 199° |
| 2026-05-08 15:27 | -16.66428 | -48.43947 | 26326 ft | 428 kts | 200° |
| 2026-05-08 15:27 | -16.69309 | -48.44765 | 26683 ft | 432 kts | 192° |
| 2026-05-08 15:28 | -16.72309 | -48.45125 | 27048 ft | 435 kts | 186° |
| 2026-05-08 15:28 | -16.75332 | -48.45376 | 27423 ft | 437 kts | 186° |
| 2026-05-08 15:28 | -16.78380 | -48.45626 | 27808 ft | 439 kts | 186° |
| 2026-05-08 15:28 | -16.81386 | -48.45869 | 28154 ft | 441 kts | 186° |
| 2026-05-08 15:29 | -16.84452 | -48.46118 | 28517 ft | 442 kts | 186° |
| 2026-05-08 15:29 | -16.87525 | -48.46371 | 28880 ft | 444 kts | 186° |
| 2026-05-08 15:29 | -16.90615 | -48.46630 | 29242 ft | 446 kts | 186° |
| 2026-05-08 15:29 | -16.93719 | -48.46893 | 29592 ft | 448 kts | 187° |
| 2026-05-08 15:30 | -16.96834 | -48.47157 | 29941 ft | 450 kts | 187° |
| 2026-05-08 15:30 | -16.99973 | -48.47422 | 30252 ft | 452 kts | 187° |
| 2026-05-08 15:30 | -17.03123 | -48.47686 | 30534 ft | 454 kts | 187° |
| 2026-05-08 15:30 | -17.06244 | -48.47947 | 30819 ft | 455 kts | 187° |
| 2026-05-08 15:31 | -17.09414 | -48.48210 | 31089 ft | 457 kts | 187° |
| 2026-05-08 15:31 | -17.12591 | -48.48473 | 31375 ft | 458 kts | 187° |
| 2026-05-08 15:31 | -17.15773 | -48.48737 | 31681 ft | 459 kts | 187° |
| 2026-05-08 15:31 | -17.18960 | -48.49003 | 32089 ft | 457 kts | 187° |
| 2026-05-08 15:32 | -17.22123 | -48.49273 | 32504 ft | 455 kts | 187° |
| 2026-05-08 15:32 | -17.25278 | -48.49541 | 32917 ft | 454 kts | 187° |
| 2026-05-08 15:32 | -17.28422 | -48.49805 | 33314 ft | 453 kts | 187° |
| 2026-05-08 15:32 | -17.31525 | -48.50066 | 33700 ft | 451 kts | 188° |
| 2026-05-08 15:33 | -17.34653 | -48.50332 | 34099 ft | 450 kts | 188° |
| 2026-05-08 15:33 | -17.37773 | -48.50596 | 34441 ft | 449 kts | 188° |
| 2026-05-08 15:33 | -17.40884 | -48.50856 | 34787 ft | 447 kts | 188° |
| 2026-05-08 15:33 | -17.43979 | -48.51112 | 35141 ft | 445 kts | 188° |
| 2026-05-08 15:34 | -17.47061 | -48.51370 | 35485 ft | 443 kts | 189° |
| 2026-05-08 15:34 | -17.50126 | -48.51630 | 35805 ft | 441 kts | 189° |
| 2026-05-08 15:34 | -17.53194 | -48.51890 | 35994 ft | 441 kts | 189° |
| 2026-05-08 15:34 | -17.56201 | -48.52142 | 36038 ft | 435 kts | 189° |
| 2026-05-08 15:35 | -17.62215 | -48.52643 | 36032 ft | 432 kts | 189° |
| 2026-05-08 15:35 | -17.68215 | -48.53145 | 36032 ft | 431 kts | 189° |
| 2026-05-08 15:36 | -17.73189 | -48.53565 | 36038 ft | 431 kts | 189° |
| 2026-05-08 15:36 | -17.80188 | -48.54191 | 36030 ft | 431 kts | 190° |
| 2026-05-08 15:37 | -17.86139 | -48.54739 | 36029 ft | 431 kts | 190° |
| 2026-05-08 15:37 | -17.92122 | -48.55281 | 36027 ft | 431 kts | 190° |
| 2026-05-08 15:38 | -17.98104 | -48.55815 | 36023 ft | 431 kts | 190° |
| 2026-05-08 15:38 | -18.04082 | -48.56349 | 36027 ft | 431 kts | 190° |
| 2026-05-08 15:39 | -18.10034 | -48.56888 | 36015 ft | 431 kts | 190° |
| 2026-05-08 15:39 | -18.16024 | -48.57431 | 36015 ft | 431 kts | 190° |
| 2026-05-08 15:40 | -18.22010 | -48.57971 | 36015 ft | 431 kts | 190° |
| 2026-05-08 15:40 | -18.27999 | -48.58511 | 36025 ft | 432 kts | 190° |
| 2026-05-08 15:41 | -18.33987 | -48.59052 | 36021 ft | 432 kts | 190° |
| 2026-05-08 15:41 | -18.39980 | -48.59586 | 36023 ft | 432 kts | 190° |
| 2026-05-08 15:42 | -18.45937 | -48.60123 | 36020 ft | 432 kts | 190° |
| 2026-05-08 15:42 | -18.51937 | -48.60669 | 36019 ft | 432 kts | 190° |
| 2026-05-08 15:43 | -18.57934 | -48.61212 | 36032 ft | 432 kts | 190° |
| 2026-05-08 15:43 | -18.63934 | -48.61755 | 36029 ft | 433 kts | 190° |
| 2026-05-08 15:44 | -18.69933 | -48.62294 | 36027 ft | 432 kts | 190° |
| 2026-05-08 15:44 | -18.75936 | -48.62840 | 36027 ft | 432 kts | 191° |
| 2026-05-08 15:45 | -18.81898 | -48.63380 | 36030 ft | 432 kts | 191° |
| 2026-05-08 15:45 | -18.87892 | -48.63922 | 36024 ft | 432 kts | 191° |
| 2026-05-08 15:46 | -18.93886 | -48.64463 | 36018 ft | 432 kts | 191° |
| 2026-05-08 15:46 | -18.99884 | -48.65009 | 36016 ft | 432 kts | 191° |
| 2026-05-08 15:47 | -19.05879 | -48.65552 | 36028 ft | 432 kts | 191° |
| 2026-05-08 15:47 | -19.11871 | -48.66093 | 36019 ft | 432 kts | 191° |
| 2026-05-08 15:48 | -19.20814 | -48.66929 | 36016 ft | 432 kts | 191° |
| 2026-05-08 15:49 | -19.26796 | -48.67553 | 36013 ft | 431 kts | 192° |
| 2026-05-08 15:49 | -19.32776 | -48.68195 | 36021 ft | 431 kts | 192° |
| 2026-05-08 15:50 | -19.38718 | -48.68813 | 36013 ft | 431 kts | 192° |
| 2026-05-08 15:50 | -19.44686 | -48.69431 | 36007 ft | 431 kts | 192° |
| 2026-05-08 15:51 | -19.50655 | -48.70054 | 36001 ft | 431 kts | 192° |
| 2026-05-08 15:51 | -19.56625 | -48.70679 | 35996 ft | 431 kts | 192° |
| 2026-05-08 15:52 | -19.62604 | -48.71300 | 35994 ft | 431 kts | 192° |
| 2026-05-08 15:52 | -19.68579 | -48.71924 | 35984 ft | 431 kts | 192° |
| 2026-05-08 15:53 | -19.74511 | -48.72539 | 35978 ft | 431 kts | 192° |
| 2026-05-08 15:53 | -19.80483 | -48.73159 | 35980 ft | 431 kts | 192° |
| 2026-05-08 15:54 | -19.86465 | -48.73785 | 35987 ft | 431 kts | 192° |
| 2026-05-08 15:54 | -19.91433 | -48.74306 | 35982 ft | 431 kts | 192° |
| 2026-05-08 15:55 | -19.97410 | -48.74929 | 35974 ft | 432 kts | 192° |
| 2026-05-08 15:55 | -20.06385 | -48.75869 | 35971 ft | 432 kts | 192° |
| 2026-05-08 15:56 | -20.12365 | -48.76498 | 35978 ft | 432 kts | 192° |
| 2026-05-08 15:56 | -20.18345 | -48.77117 | 35971 ft | 432 kts | 192° |
| 2026-05-08 15:57 | -20.24339 | -48.77743 | 35965 ft | 432 kts | 192° |
| 2026-05-08 15:57 | -20.30324 | -48.78371 | 35958 ft | 432 kts | 192° |
| 2026-05-08 15:58 | -20.36271 | -48.78991 | 35972 ft | 432 kts | 192° |
| 2026-05-08 15:58 | -20.42268 | -48.79618 | 35967 ft | 433 kts | 192° |
| 2026-05-08 15:59 | -20.48277 | -48.80251 | 35969 ft | 434 kts | 192° |
| 2026-05-08 15:59 | -20.54293 | -48.80877 | 35969 ft | 434 kts | 192° |
| 2026-05-08 16:00 | -20.60302 | -48.81506 | 35968 ft | 434 kts | 192° |
| 2026-05-08 16:00 | -20.66313 | -48.82133 | 35971 ft | 434 kts | 192° |
| 2026-05-08 16:01 | -20.72315 | -48.82881 | 35960 ft | 433 kts | 194° |
| 2026-05-08 16:01 | -20.78265 | -48.83869 | 35958 ft | 432 kts | 195° |
| 2026-05-08 16:02 | -20.84181 | -48.84884 | 35956 ft | 433 kts | 195° |
| 2026-05-08 16:02 | -20.90147 | -48.85856 | 35961 ft | 434 kts | 194° |
| 2026-05-08 16:03 | -20.96119 | -48.86798 | 35961 ft | 434 kts | 194° |
| 2026-05-08 16:03 | -21.02101 | -48.87744 | 35956 ft | 434 kts | 194° |
| 2026-05-08 16:04 | -21.08082 | -48.88700 | 35962 ft | 435 kts | 194° |
| 2026-05-08 16:04 | -21.14064 | -48.89657 | 35958 ft | 435 kts | 194° |
| 2026-05-08 16:05 | -21.20054 | -48.90616 | 35967 ft | 435 kts | 194° |
| 2026-05-08 16:05 | -21.25993 | -48.91566 | 35968 ft | 434 kts | 194° |
| 2026-05-08 16:06 | -21.31980 | -48.92521 | 35961 ft | 434 kts | 194° |
| 2026-05-08 16:06 | -21.37950 | -48.93475 | 35961 ft | 434 kts | 194° |
| 2026-05-08 16:07 | -21.43934 | -48.94438 | 35960 ft | 434 kts | 195° |
| 2026-05-08 16:07 | -21.49899 | -48.95395 | 35961 ft | 433 kts | 195° |
| 2026-05-08 16:08 | -21.55827 | -48.96351 | 35957 ft | 433 kts | 195° |
| 2026-05-08 16:08 | -21.61791 | -48.97305 | 35955 ft | 433 kts | 195° |
| 2026-05-08 16:09 | -21.67732 | -48.98326 | 35963 ft | 431 kts | 198° |
| 2026-05-08 16:09 | -21.73564 | -48.99726 | 35942 ft | 429 kts | 200° |
| 2026-05-08 16:10 | -21.79362 | -49.01273 | 35939 ft | 430 kts | 200° |
| 2026-05-08 16:10 | -21.85192 | -49.02766 | 35935 ft | 431 kts | 199° |
| 2026-05-08 16:11 | -21.91047 | -49.04201 | 35935 ft | 432 kts | 199° |
| 2026-05-08 16:11 | -21.96913 | -49.05629 | 35948 ft | 432 kts | 199° |
| 2026-05-08 16:12 | -22.02731 | -49.07062 | 35952 ft | 432 kts | 199° |
| 2026-05-08 16:12 | -22.08596 | -49.08514 | 35969 ft | 432 kts | 199° |
| 2026-05-08 16:13 | -22.14457 | -49.09959 | 35975 ft | 432 kts | 200° |
| 2026-05-08 16:13 | -22.20324 | -49.11407 | 35982 ft | 432 kts | 200° |
| 2026-05-08 16:14 | -22.26196 | -49.12854 | 35996 ft | 432 kts | 200° |
| 2026-05-08 16:14 | -22.32021 | -49.14300 | 35996 ft | 432 kts | 200° |
| 2026-05-08 16:15 | -22.37901 | -49.15755 | 35998 ft | 432 kts | 200° |
| 2026-05-08 16:15 | -22.43746 | -49.17278 | 35959 ft | 431 kts | 201° |
| 2026-05-08 16:16 | -22.49513 | -49.18952 | 35971 ft | 430 kts | 202° |
| 2026-05-08 16:16 | -22.55307 | -49.20650 | 35943 ft | 431 kts | 202° |
| 2026-05-08 16:17 | -22.60138 | -49.22029 | 35935 ft | 431 kts | 201° |
| 2026-05-08 16:17 | -22.66924 | -49.23889 | 35931 ft | 432 kts | 201° |
| 2026-05-08 16:18 | -22.72763 | -49.25468 | 35933 ft | 432 kts | 201° |
| 2026-05-08 16:18 | -22.78599 | -49.27051 | 35934 ft | 432 kts | 201° |
| 2026-05-08 16:19 | -22.84399 | -49.28650 | 35930 ft | 432 kts | 201° |
| 2026-05-08 16:19 | -22.90237 | -49.30268 | 35927 ft | 433 kts | 201° |
| 2026-05-08 16:20 | -22.96079 | -49.31882 | 35925 ft | 433 kts | 201° |
| 2026-05-08 16:20 | -23.01930 | -49.33485 | 35942 ft | 433 kts | 202° |
| 2026-05-08 16:21 | -23.07784 | -49.35097 | 35925 ft | 434 kts | 202° |
| 2026-05-08 16:21 | -23.13645 | -49.36717 | 35917 ft | 435 kts | 202° |
| 2026-05-08 16:22 | -23.19484 | -49.38327 | 35924 ft | 435 kts | 202° |
| 2026-05-08 16:22 | -23.25381 | -49.39887 | 35919 ft | 437 kts | 200° |
| 2026-05-08 16:23 | -23.31327 | -49.41312 | 35927 ft | 438 kts | 200° |
| 2026-05-08 16:23 | -23.37296 | -49.42727 | 35908 ft | 439 kts | 200° |
| 2026-05-08 16:24 | -23.43275 | -49.44188 | 35911 ft | 439 kts | 201° |
| 2026-05-08 16:24 | -23.49160 | -49.45910 | 35915 ft | 437 kts | 204° |
| 2026-05-08 16:25 | -23.54945 | -49.47812 | 35932 ft | 436 kts | 205° |
| 2026-05-08 16:25 | -23.60773 | -49.49724 | 35916 ft | 438 kts | 204° |
| 2026-05-08 16:26 | -23.66683 | -49.51530 | 35913 ft | 441 kts | 202° |
| 2026-05-08 16:26 | -23.72651 | -49.53074 | 35924 ft | 448 kts | 195° |
| 2026-05-08 16:27 | -23.78993 | -49.53154 | 35920 ft | 463 kts | 181° |
| 2026-05-08 16:27 | -23.85410 | -49.52575 | 35924 ft | 463 kts | 182° |
| 2026-05-08 16:28 | -23.91839 | -49.52022 | 35914 ft | 463 kts | 182° |
| 2026-05-08 16:28 | -23.98280 | -49.51456 | 35924 ft | 464 kts | 182° |
| 2026-05-08 16:29 | -24.04683 | -49.50884 | 35951 ft | 464 kts | 182° |
| 2026-05-08 16:29 | -24.11140 | -49.50306 | 35946 ft | 464 kts | 182° |
| 2026-05-08 16:30 | -24.17555 | -49.49734 | 35630 ft | 466 kts | 182° |
| 2026-05-08 16:30 | -24.20790 | -49.49444 | 35387 ft | 466 kts | 182° |
| 2026-05-08 16:30 | -24.24045 | -49.49153 | 35147 ft | 467 kts | 182° |
| 2026-05-08 16:31 | -24.27270 | -49.48865 | 34753 ft | 463 kts | 182° |
| 2026-05-08 16:31 | -24.30482 | -49.48573 | 34173 ft | 464 kts | 181° |
| 2026-05-08 16:31 | -24.33699 | -49.48284 | 33551 ft | 463 kts | 181° |
| 2026-05-08 16:31 | -24.36905 | -49.47999 | 32994 ft | 461 kts | 181° |
| 2026-05-08 16:32 | -24.40064 | -49.47720 | 32442 ft | 459 kts | 181° |
| 2026-05-08 16:32 | -24.43245 | -49.47436 | 31871 ft | 458 kts | 181° |
| 2026-05-08 16:32 | -24.46416 | -49.47147 | 31323 ft | 456 kts | 181° |
| 2026-05-08 16:32 | -24.49576 | -49.46856 | 30778 ft | 454 kts | 181° |
| 2026-05-08 16:33 | -24.52718 | -49.46566 | 30269 ft | 452 kts | 181° |
| 2026-05-08 16:33 | -24.55858 | -49.46281 | 29660 ft | 451 kts | 181° |
| 2026-05-08 16:33 | -24.58963 | -49.46005 | 29155 ft | 446 kts | 181° |
| 2026-05-08 16:33 | -24.62047 | -49.45730 | 28647 ft | 442 kts | 181° |
| 2026-05-08 16:34 | -24.65103 | -49.45458 | 28158 ft | 437 kts | 181° |
| 2026-05-08 16:34 | -24.68123 | -49.45187 | 27672 ft | 433 kts | 181° |
| 2026-05-08 16:34 | -24.71107 | -49.44918 | 27170 ft | 429 kts | 181° |
| 2026-05-08 16:34 | -24.74030 | -49.44654 | 26703 ft | 426 kts | 181° |
| 2026-05-08 16:35 | -24.76975 | -49.44387 | 26190 ft | 423 kts | 181° |
| 2026-05-08 16:35 | -24.79905 | -49.44123 | 25691 ft | 421 kts | 181° |
| 2026-05-08 16:35 | -24.82816 | -49.43858 | 25217 ft | 418 kts | 181° |
| 2026-05-08 16:35 | -24.85702 | -49.43593 | 24735 ft | 415 kts | 181° |
| 2026-05-08 16:36 | -24.88575 | -49.43331 | 24243 ft | 413 kts | 181° |
| 2026-05-08 16:36 | -24.91433 | -49.43073 | 23754 ft | 411 kts | 181° |
| 2026-05-08 16:36 | -24.94285 | -49.42818 | 23216 ft | 410 kts | 181° |
| 2026-05-08 16:36 | -24.97137 | -49.42563 | 22703 ft | 407 kts | 181° |
| 2026-05-08 16:37 | -24.99911 | -49.42314 | 22236 ft | 404 kts | 180° |
| 2026-05-08 16:37 | -25.02706 | -49.42061 | 21751 ft | 402 kts | 180° |
| 2026-05-08 16:37 | -25.05491 | -49.41808 | 21293 ft | 400 kts | 180° |
| 2026-05-08 16:37 | -25.08251 | -49.41555 | 20821 ft | 397 kts | 180° |
| 2026-05-08 16:38 | -25.11008 | -49.41303 | 20356 ft | 394 kts | 180° |
| 2026-05-08 16:38 | -25.13735 | -49.41055 | 19898 ft | 393 kts | 180° |
| 2026-05-08 16:38 | -25.16460 | -49.40809 | 19448 ft | 392 kts | 180° |
| 2026-05-08 16:38 | -25.19172 | -49.40564 | 18996 ft | 391 kts | 180° |
| 2026-05-08 16:39 | -25.21880 | -49.40335 | 18547 ft | 390 kts | 181° |
| 2026-05-08 16:39 | -25.24568 | -49.40168 | 18062 ft | 380 kts | 183° |
| 2026-05-08 16:39 | -25.27161 | -49.40048 | 17618 ft | 366 kts | 184° |
| 2026-05-08 16:39 | -25.29655 | -49.39950 | 17207 ft | 352 kts | 184° |
| 2026-05-08 16:40 | -25.32044 | -49.39859 | 16905 ft | 344 kts | 184° |
| 2026-05-08 16:40 | -25.34438 | -49.39766 | 16524 ft | 344 kts | 184° |
| 2026-05-08 16:40 | -25.36830 | -49.39666 | 16134 ft | 344 kts | 184° |
| 2026-05-08 16:40 | -25.39233 | -49.39559 | 15761 ft | 345 kts | 184° |
| 2026-05-08 16:41 | -25.41632 | -49.39447 | 15370 ft | 345 kts | 184° |
| 2026-05-08 16:41 | -25.44033 | -49.39322 | 14984 ft | 346 kts | 181° |
| 2026-05-08 16:41 | -25.46415 | -49.38787 | 14591 ft | 354 kts | 166° |
| 2026-05-08 16:42 | -25.50005 | -49.36502 | 13921 ft | 365 kts | 140° |
| 2026-05-08 16:42 | -25.51802 | -49.34528 | 13468 ft | 358 kts | 136° |
| 2026-05-08 16:42 | -25.53524 | -49.32593 | 13050 ft | 346 kts | 136° |
| 2026-05-08 16:42 | -25.55203 | -49.30713 | 12672 ft | 343 kts | 136° |
| 2026-05-08 16:43 | -25.56886 | -49.28833 | 12272 ft | 344 kts | 136° |
| 2026-05-08 16:43 | -25.58579 | -49.26944 | 11877 ft | 345 kts | 136° |
| 2026-05-08 16:43 | -25.60272 | -49.25052 | 11465 ft | 346 kts | 136° |
| 2026-05-08 16:43 | -25.61972 | -49.23152 | 11050 ft | 348 kts | 136° |
| 2026-05-08 16:44 | -25.63669 | -49.21252 | 10630 ft | 344 kts | 135° |
| 2026-05-08 16:44 | -25.65304 | -49.19421 | 10204 ft | 334 kts | 135° |
| 2026-05-08 16:44 | -25.66921 | -49.17609 | 9764 ft | 325 kts | 134° |
| 2026-05-08 16:44 | -25.68490 | -49.15852 | 9311 ft | 317 kts | 134° |
| 2026-05-08 16:45 | -25.69945 | -49.14074 | 8892 ft | 306 kts | 121° |
| 2026-05-08 16:45 | -25.70665 | -49.11938 | 8445 ft | 288 kts | 88° |
| 2026-05-08 16:45 | -25.70483 | -49.09840 | 8046 ft | 264 kts | 60° |
| 2026-05-08 16:45 | -25.69605 | -49.08141 | 7637 ft | 247 kts | 36° |
| 2026-05-08 16:46 | -25.68385 | -49.06829 | 7252 ft | 245 kts | 34° |
| 2026-05-08 16:46 | -25.67149 | -49.05532 | 6864 ft | 244 kts | 31° |
| 2026-05-08 16:46 | -25.65717 | -49.04738 | 6467 ft | 222 kts | 359° |
| 2026-05-08 16:46 | -25.64292 | -49.04972 | 6105 ft | 199 kts | 329° |
| 2026-05-08 16:47 | -25.63259 | -49.05891 | 5758 ft | 187 kts | 314° |
| 2026-05-08 16:47 | -25.62363 | -49.06901 | 5455 ft | 179 kts | 314° |
| 2026-05-08 16:47 | -25.61521 | -49.07849 | 5237 ft | 166 kts | 313° |
| 2026-05-08 16:47 | -25.60748 | -49.08717 | 5041 ft | 152 kts | 313° |
| 2026-05-08 16:48 | -25.60030 | -49.09523 | 4846 ft | 144 kts | 313° |
| 2026-05-08 16:48 | -25.59339 | -49.10298 | 4655 ft | 140 kts | 313° |
| 2026-05-08 16:48 | -25.58657 | -49.11064 | 4475 ft | 139 kts | 314° |
| 2026-05-08 16:48 | -25.57980 | -49.11823 | 4285 ft | 138 kts | 314° |
| 2026-05-08 16:49 | -25.57306 | -49.12579 | 4111 ft | 138 kts | 315° |
| 2026-05-08 16:49 | -25.56635 | -49.13331 | 3925 ft | 136 kts | 313° |
| 2026-05-08 16:49 | -25.55973 | -49.14083 | 3772 ft | 136 kts | 313° |
| 2026-05-08 16:49 | -25.55283 | -49.14850 | 3543 ft | 141 kts | 313° |
| 2026-05-08 16:50 | -25.54604 | -49.15603 | 3291 ft | 136 kts | 310° |
| 2026-05-08 16:50 | -25.53948 | -49.16335 | 3143 ft | 134 kts | 309° |
| 2026-05-08 16:50 | -25.53307 | -49.17071 | 2987 ft | 123 kts | 316° |
| 2026-05-08 16:50 | -25.52890 | -49.17532 | 2988 ft | 42 kts | 315° |
| 2026-05-08 16:51 | -25.52756 | -49.17668 | 2988 ft | 25 kts | 314° |
| 2026-05-08 16:51 | -25.52644 | -49.17801 | 2988 ft | 24 kts | 312° |
| 2026-05-08 16:51 | -25.52544 | -49.17917 | 2990 ft | 17 kts | 314° |
| 2026-05-08 16:51 | -25.52549 | -49.18001 | 2991 ft | 12 kts | 202° |
| 2026-05-08 16:52 | -25.52616 | -49.18006 | 2991 ft | 7 kts | 177° |
| 2026-05-08 16:52 | -25.52650 | -49.18004 | 2991 ft | 5 kts | 177° |
| 2026-05-08 16:52 | -25.52754 | -49.17997 | 2991 ft | 18 kts | 177° |
| 2026-05-08 16:52 | -25.52868 | -49.17976 | 2989 ft | 14 kts | 147° |
| 2026-05-08 16:53 | -25.52974 | -49.17837 | 2990 ft | 10 kts | 103° |
| 2026-05-08 16:53 | -25.52981 | -49.17704 | 2989 ft | 20 kts | 90° |
| 2026-05-08 16:53 | -25.53022 | -49.17605 | 2989 ft | 11 kts | 136° |
| 2026-05-08 16:54 | -25.53082 | -49.17540 | 2988 ft | 17 kts | 135° |
| 2026-05-08 16:54 | -25.53154 | -49.17460 | 2988 ft | 12 kts | 134° |
| 2026-05-08 16:54 | -25.53211 | -49.17396 | 2987 ft | 11 kts | 135° |
| 2026-05-08 16:54 | -25.53254 | -49.17347 | 2987 ft | 6 kts | 134° |
| 2026-05-08 16:55 | -25.53289 | -49.17310 | 2986 ft | 6 kts | 135° |
| 2026-05-08 16:55 | -25.53347 | -49.17246 | 2986 ft | 22 kts | 134° |
| 2026-05-08 16:55 | -25.53433 | -49.17147 | 2985 ft | 14 kts | 134° |
| 2026-05-08 16:55 | -25.53489 | -49.17085 | 2984 ft | 9 kts | 134° |
| 2026-05-08 16:56 | -25.53532 | -49.17034 | 2984 ft | 10 kts | 135° |
| 2026-05-08 16:56 | -25.53578 | -49.17019 | 2983 ft | 4 kts | 198° |
| 2026-05-08 16:56 | -25.53608 | -49.17036 | 2983 ft | 9 kts | 195° |
| 2026-05-08 16:56 | -25.53653 | -49.17044 | 2983 ft | 5 kts | 223° |
| 2026-05-08 16:57 | -25.53679 | -49.17069 | 2983 ft | 2 kts | 218° |
| 2026-05-08 16:57 | -25.53687 | -49.17077 | 2983 ft | 1 kts | 224° |
| 2026-05-08 16:57 | -25.53690 | -49.17081 | 2983 ft | 0 kts | 224° |